FIN5VP EFHK-LCLK
Flight info
| Callsign | FIN5VP |
|---|---|
| Flight time | N/A |
| Altitude | 32000 |
| Route | KOIVU DCT LARTI DCT NAVOT DCT LUTAL DCT BERIL DCT BOKSU DCT TOXAR DCT ROBTU DCT KENIN DCT ARGES DCT RIXEN UG1 IST UT35 AYT UA16 TOMBI M855 DASNI M601 BONEK |
| Aircraft | A321/M-SDE3FGHIRWY/LB1 |
Departure
| Time | 2026-05-07 14:03 |
|---|---|
| Airport | Helsinki Vantaa Airport (EFHK) |
Arrival
| Time | N/A |
|---|---|
| Airport | Larnaca International Airport (LCLK) |
| Time | Latitude | Longitude | Altitude | Speed | Heading |
|---|---|---|---|---|---|
| 2026-05-07 13:37 | 60.31902 | 24.96964 | 166 ft | 0 kts | 242° |
| 2026-05-07 13:51 | 60.31909 | 24.96988 | 166 ft | 4 kts | 242° |
| 2026-05-07 13:51 | 60.31921 | 24.97036 | 166 ft | 4 kts | 242° |
| 2026-05-07 13:51 | 60.31930 | 24.97073 | 166 ft | 4 kts | 283° |
| 2026-05-07 13:52 | 60.31916 | 24.97100 | 166 ft | 4 kts | 336° |
| 2026-05-07 13:52 | 60.31893 | 24.97122 | 166 ft | 4 kts | 333° |
| 2026-05-07 13:52 | 60.31869 | 24.97147 | 166 ft | 4 kts | 334° |
| 2026-05-07 13:52 | 60.31846 | 24.97169 | 166 ft | 2 kts | 332° |
| 2026-05-07 13:53 | 60.31845 | 24.97170 | 166 ft | 0 kts | 332° |
| 2026-05-07 13:55 | 60.31852 | 24.97163 | 166 ft | 2 kts | 334° |
| 2026-05-07 13:55 | 60.31873 | 24.97143 | 166 ft | 5 kts | 334° |
| 2026-05-07 13:55 | 60.31911 | 24.97105 | 166 ft | 7 kts | 333° |
| 2026-05-07 13:55 | 60.31960 | 24.97055 | 166 ft | 8 kts | 333° |
| 2026-05-07 13:56 | 60.32014 | 24.96998 | 166 ft | 9 kts | 332° |
| 2026-05-07 13:56 | 60.32074 | 24.96933 | 166 ft | 10 kts | 331° |
| 2026-05-07 13:56 | 60.32139 | 24.96859 | 166 ft | 11 kts | 329° |
| 2026-05-07 13:56 | 60.32210 | 24.96775 | 166 ft | 12 kts | 330° |
| 2026-05-07 13:57 | 60.32282 | 24.96691 | 167 ft | 12 kts | 330° |
| 2026-05-07 13:57 | 60.32340 | 24.96623 | 171 ft | 7 kts | 329° |
| 2026-05-07 13:57 | 60.32370 | 24.96587 | 173 ft | 3 kts | 329° |
| 2026-05-07 13:57 | 60.32387 | 24.96566 | 174 ft | 3 kts | 329° |
| 2026-05-07 13:58 | 60.32414 | 24.96535 | 175 ft | 7 kts | 330° |
| 2026-05-07 13:58 | 60.32474 | 24.96468 | 173 ft | 13 kts | 330° |
| 2026-05-07 13:58 | 60.32549 | 24.96380 | 173 ft | 12 kts | 330° |
| 2026-05-07 13:58 | 60.32621 | 24.96297 | 172 ft | 12 kts | 330° |
| 2026-05-07 13:59 | 60.32699 | 24.96206 | 172 ft | 13 kts | 330° |
| 2026-05-07 13:59 | 60.32777 | 24.96115 | 173 ft | 13 kts | 330° |
| 2026-05-07 13:59 | 60.32851 | 24.96028 | 174 ft | 12 kts | 330° |
| 2026-05-07 13:59 | 60.32919 | 24.95949 | 176 ft | 10 kts | 330° |
| 2026-05-07 14:00 | 60.32977 | 24.95881 | 178 ft | 10 kts | 330° |
| 2026-05-07 14:00 | 60.33052 | 24.95794 | 181 ft | 15 kts | 329° |
| 2026-05-07 14:00 | 60.33135 | 24.95653 | 180 ft | 16 kts | 317° |
| 2026-05-07 14:00 | 60.33205 | 24.95499 | 182 ft | 14 kts | 293° |
| 2026-05-07 14:01 | 60.33173 | 24.95316 | 179 ft | 16 kts | 229° |
| 2026-05-07 14:01 | 60.33111 | 24.95118 | 178 ft | 17 kts | 258° |
| 2026-05-07 14:01 | 60.33112 | 24.94885 | 179 ft | 16 kts | 272° |
| 2026-05-07 14:01 | 60.33117 | 24.94681 | 184 ft | 13 kts | 272° |
| 2026-05-07 14:02 | 60.33120 | 24.94536 | 189 ft | 8 kts | 272° |
| 2026-05-07 14:02 | 60.33116 | 24.94421 | 198 ft | 11 kts | 255° |
| 2026-05-07 14:02 | 60.33051 | 24.94248 | 198 ft | 21 kts | 227° |
| 2026-05-07 14:02 | 60.32825 | 24.93754 | 181 ft | 82 kts | 227° |
| 2026-05-07 14:03 | 60.32296 | 24.92591 | 170 ft | 141 kts | 227° |
| 2026-05-07 14:03 | 60.31535 | 24.90909 | 282 ft | 176 kts | 227° |
| 2026-05-07 14:03 | 60.30996 | 24.89708 | 834 ft | 168 kts | 226° |
| 2026-05-07 14:03 | 60.30261 | 24.87848 | 1497 ft | 173 kts | 233° |
| 2026-05-07 14:04 | 60.29569 | 24.85702 | 1627 ft | 193 kts | 234° |
| 2026-05-07 14:04 | 60.28803 | 24.83322 | 1785 ft | 213 kts | 235° |
| 2026-05-07 14:04 | 60.27937 | 24.80679 | 1873 ft | 240 kts | 234° |
| 2026-05-07 14:04 | 60.26975 | 24.77753 | 2165 ft | 257 kts | 238° |
| 2026-05-07 14:05 | 60.26191 | 24.74483 | 2802 ft | 262 kts | 246° |
| 2026-05-07 14:05 | 60.25501 | 24.71067 | 3498 ft | 265 kts | 249° |
| 2026-05-07 14:05 | 60.24845 | 24.67576 | 4157 ft | 268 kts | 250° |
| 2026-05-07 14:05 | 60.23953 | 24.64301 | 4798 ft | 270 kts | 224° |
| 2026-05-07 14:06 | 60.22340 | 24.62439 | 5359 ft | 273 kts | 191° |
| 2026-05-07 14:06 | 60.20440 | 24.62219 | 5969 ft | 273 kts | 177° |
| 2026-05-07 14:06 | 60.18545 | 24.62413 | 6639 ft | 275 kts | 175° |
| 2026-05-07 14:06 | 60.16626 | 24.62733 | 7256 ft | 278 kts | 174° |
| 2026-05-07 14:07 | 60.14692 | 24.63072 | 7878 ft | 280 kts | 174° |
| 2026-05-07 14:07 | 60.12738 | 24.63383 | 8481 ft | 283 kts | 175° |
| 2026-05-07 14:07 | 60.10764 | 24.63661 | 9075 ft | 285 kts | 175° |
| 2026-05-07 14:07 | 60.08779 | 24.63913 | 9658 ft | 288 kts | 176° |
| 2026-05-07 14:08 | 60.06773 | 24.64149 | 10239 ft | 291 kts | 176° |
| 2026-05-07 14:08 | 60.04687 | 24.64378 | 10405 ft | 310 kts | 177° |
| 2026-05-07 14:08 | 60.02467 | 24.64617 | 10539 ft | 329 kts | 177° |
| 2026-05-07 14:08 | 60.00121 | 24.64866 | 10658 ft | 346 kts | 178° |
| 2026-05-07 14:09 | 59.97623 | 24.65129 | 10818 ft | 362 kts | 178° |
| 2026-05-07 14:09 | 59.95088 | 24.65398 | 11255 ft | 368 kts | 178° |
| 2026-05-07 14:09 | 59.92515 | 24.65672 | 11805 ft | 371 kts | 178° |
| 2026-05-07 14:09 | 59.89933 | 24.65944 | 12366 ft | 373 kts | 179° |
| 2026-05-07 14:10 | 59.87341 | 24.66216 | 12921 ft | 375 kts | 179° |
| 2026-05-07 14:10 | 59.84732 | 24.66275 | 13444 ft | 375 kts | 187° |
| 2026-05-07 14:10 | 59.82163 | 24.65450 | 14003 ft | 374 kts | 196° |
| 2026-05-07 14:10 | 59.79628 | 24.64237 | 14547 ft | 375 kts | 196° |
| 2026-05-07 14:11 | 59.77088 | 24.63033 | 15083 ft | 377 kts | 196° |
| 2026-05-07 14:11 | 59.74529 | 24.61829 | 15626 ft | 379 kts | 197° |
| 2026-05-07 14:11 | 59.71960 | 24.60627 | 16149 ft | 380 kts | 197° |
| 2026-05-07 14:11 | 59.69380 | 24.59419 | 16662 ft | 382 kts | 197° |
| 2026-05-07 14:12 | 59.66788 | 24.58205 | 17169 ft | 384 kts | 197° |
| 2026-05-07 14:12 | 59.64198 | 24.56939 | 17653 ft | 385 kts | 198° |
| 2026-05-07 14:12 | 59.61598 | 24.55598 | 18143 ft | 386 kts | 199° |
| 2026-05-07 14:12 | 59.59000 | 24.54219 | 18611 ft | 387 kts | 199° |
| 2026-05-07 14:13 | 59.56400 | 24.52831 | 19063 ft | 388 kts | 199° |
| 2026-05-07 14:13 | 59.53784 | 24.51444 | 19499 ft | 390 kts | 199° |
| 2026-05-07 14:13 | 59.51155 | 24.50068 | 19931 ft | 391 kts | 199° |
| 2026-05-07 14:13 | 59.48516 | 24.48697 | 20358 ft | 393 kts | 199° |
| 2026-05-07 14:14 | 59.45873 | 24.47333 | 20774 ft | 394 kts | 199° |
| 2026-05-07 14:14 | 59.43213 | 24.45966 | 21152 ft | 396 kts | 199° |
| 2026-05-07 14:14 | 59.40546 | 24.44597 | 21545 ft | 397 kts | 199° |
| 2026-05-07 14:14 | 59.37871 | 24.43224 | 21931 ft | 398 kts | 199° |
| 2026-05-07 14:15 | 59.35194 | 24.41856 | 22306 ft | 399 kts | 199° |
| 2026-05-07 14:15 | 59.32487 | 24.40583 | 22681 ft | 401 kts | 197° |
| 2026-05-07 14:15 | 59.29740 | 24.39498 | 23017 ft | 404 kts | 195° |
| 2026-05-07 14:15 | 59.26967 | 24.38535 | 23368 ft | 405 kts | 195° |
| 2026-05-07 14:16 | 59.24178 | 24.37623 | 23705 ft | 407 kts | 194° |
| 2026-05-07 14:16 | 59.21345 | 24.36697 | 24051 ft | 407 kts | 194° |
| 2026-05-07 14:16 | 59.18586 | 24.35772 | 24372 ft | 408 kts | 195° |
| 2026-05-07 14:16 | 59.15752 | 24.34779 | 24687 ft | 409 kts | 195° |
| 2026-05-07 14:17 | 59.12946 | 24.33777 | 24986 ft | 410 kts | 195° |
| 2026-05-07 14:17 | 59.10133 | 24.32771 | 25294 ft | 411 kts | 195° |
| 2026-05-07 14:17 | 59.07312 | 24.31763 | 25574 ft | 413 kts | 195° |
| 2026-05-07 14:17 | 59.04484 | 24.30753 | 25841 ft | 414 kts | 195° |
| 2026-05-07 14:18 | 59.01647 | 24.29738 | 26127 ft | 415 kts | 195° |
| 2026-05-07 14:18 | 58.98807 | 24.28726 | 26413 ft | 416 kts | 195° |
| 2026-05-07 14:18 | 58.95952 | 24.27716 | 26706 ft | 417 kts | 195° |
| 2026-05-07 14:18 | 58.93092 | 24.26706 | 26998 ft | 418 kts | 195° |
| 2026-05-07 14:19 | 58.90234 | 24.25703 | 27385 ft | 416 kts | 195° |
| 2026-05-07 14:19 | 58.87388 | 24.24712 | 27761 ft | 415 kts | 195° |
| 2026-05-07 14:19 | 58.84552 | 24.23725 | 28144 ft | 413 kts | 195° |
| 2026-05-07 14:19 | 58.81732 | 24.22741 | 28536 ft | 411 kts | 195° |
| 2026-05-07 14:20 | 58.78932 | 24.21766 | 28909 ft | 409 kts | 195° |
| 2026-05-07 14:20 | 58.76136 | 24.20794 | 29268 ft | 407 kts | 195° |
| 2026-05-07 14:20 | 58.73352 | 24.19826 | 29620 ft | 405 kts | 195° |
| 2026-05-07 14:20 | 58.70582 | 24.18860 | 29974 ft | 404 kts | 195° |
| 2026-05-07 14:21 | 58.67824 | 24.17898 | 30312 ft | 402 kts | 196° |
| 2026-05-07 14:21 | 58.65080 | 24.16943 | 30632 ft | 401 kts | 195° |
| 2026-05-07 14:21 | 58.62336 | 24.15994 | 30918 ft | 401 kts | 196° |
| 2026-05-07 14:21 | 58.59587 | 24.15044 | 31194 ft | 400 kts | 196° |
| 2026-05-07 14:22 | 58.56852 | 24.14102 | 31454 ft | 400 kts | 196° |
| 2026-05-07 14:22 | 58.54109 | 24.13161 | 31710 ft | 400 kts | 196° |
| 2026-05-07 14:22 | 58.51370 | 24.12220 | 31951 ft | 400 kts | 196° |
| 2026-05-07 14:23 | 58.45875 | 24.10328 | 32035 ft | 402 kts | 196° |
| 2026-05-07 14:23 | 58.40369 | 24.08439 | 32036 ft | 402 kts | 196° |
| 2026-05-07 14:24 | 58.34833 | 24.06542 | 32036 ft | 401 kts | 196° |
| 2026-05-07 14:24 | 58.29334 | 24.04675 | 32035 ft | 401 kts | 196° |
| 2026-05-07 14:25 | 58.23839 | 24.02819 | 32037 ft | 401 kts | 196° |
| 2026-05-07 14:25 | 58.18335 | 24.00966 | 32040 ft | 402 kts | 196° |
| 2026-05-07 14:26 | 58.12826 | 23.99117 | 32045 ft | 402 kts | 196° |
| 2026-05-07 14:26 | 58.07317 | 23.97268 | 32046 ft | 402 kts | 196° |
| 2026-05-07 14:27 | 58.01806 | 23.95431 | 32055 ft | 402 kts | 195° |
| 2026-05-07 14:27 | 57.96301 | 23.93596 | 32049 ft | 402 kts | 196° |
| 2026-05-07 14:28 | 57.90794 | 23.91749 | 32049 ft | 402 kts | 196° |
| 2026-05-07 14:28 | 57.85287 | 23.89918 | 32047 ft | 402 kts | 195° |
| 2026-05-07 14:29 | 57.79779 | 23.88105 | 32045 ft | 402 kts | 196° |
| 2026-05-07 14:29 | 57.74277 | 23.86291 | 32045 ft | 402 kts | 195° |
| 2026-05-07 14:30 | 57.68768 | 23.84487 | 32046 ft | 402 kts | 195° |
| 2026-05-07 14:30 | 57.63258 | 23.82686 | 32047 ft | 402 kts | 195° |
| 2026-05-07 14:31 | 57.57754 | 23.80894 | 32047 ft | 402 kts | 195° |
| 2026-05-07 14:31 | 57.52245 | 23.79092 | 32046 ft | 402 kts | 195° |
| 2026-05-07 14:32 | 57.46695 | 23.77293 | 32043 ft | 402 kts | 195° |
| 2026-05-07 14:32 | 57.41177 | 23.75514 | 32040 ft | 403 kts | 195° |
| 2026-05-07 14:33 | 57.35659 | 23.73749 | 32037 ft | 403 kts | 195° |
| 2026-05-07 14:33 | 57.30132 | 23.71970 | 32036 ft | 403 kts | 195° |
| 2026-05-07 14:34 | 57.24599 | 23.70194 | 32036 ft | 403 kts | 195° |
| 2026-05-07 14:34 | 57.19060 | 23.68431 | 32036 ft | 404 kts | 195° |
| 2026-05-07 14:35 | 57.13527 | 23.66676 | 32033 ft | 404 kts | 195° |
| 2026-05-07 14:35 | 57.07991 | 23.64910 | 32029 ft | 404 kts | 195° |
| 2026-05-07 14:36 | 57.02447 | 23.63149 | 32027 ft | 404 kts | 195° |
| 2026-05-07 14:36 | 56.96891 | 23.61408 | 32029 ft | 405 kts | 195° |
| 2026-05-07 14:37 | 56.91334 | 23.59668 | 32030 ft | 405 kts | 195° |
| 2026-05-07 14:37 | 56.83899 | 23.57337 | 32032 ft | 405 kts | 195° |
| 2026-05-07 14:38 | 56.78336 | 23.55594 | 32030 ft | 406 kts | 195° |
| 2026-05-07 14:38 | 56.72776 | 23.53863 | 32031 ft | 406 kts | 195° |
| 2026-05-07 14:39 | 56.67207 | 23.52140 | 32031 ft | 406 kts | 195° |